CST,Max TemperatureF,Mean TemperatureF,Min TemperatureF,Max Dew PointF,MeanDew PointF,Min DewpointF,Max Humidity, Mean Humidity, Min Humidity, Max Sea Level PressureIn, Mean Sea Level PressureIn, Min Sea Level PressureIn, Max VisibilityMiles, Mean VisibilityMiles, Min VisibilityMiles, Max Wind SpeedMPH, Mean Wind SpeedMPH, Max Gust SpeedMPH,PrecipitationIn, CloudCover, Events, WindDirDegrees
2011-11-1,50,44,37,37,32,28,76,60,50,29.99,29.90,29.86,10,10,4,10,4,16,0.00,3,,124
2011-11-2,48,42,37,37,31,25,76,61,46,30.23,30.15,30.03,10,10,10,14,8,17,0.00,4,Rain,339
2011-11-3,50,37,24,28,24,21,93,65,32,30.31,30.25,30.21,10,10,3,8,4,,0.00,0,,334
2011-11-4,53,35,17,30,22,16,100,66,30,30.26,30.20,30.07,10,10,4,17,4,24,0.00,0,,156
2011-11-5,55,46,37,41,37,32,87,75,58,30.06,29.89,29.72,10,10,7,23,13,30,0.00,1,,156
2011-11-6,53,47,41,45,37,25,93,71,46,29.95,29.71,29.59,10,10,7,20,13,31,0.00,2,,203
2011-11-7,48,39,30,27,22,19,70,51,37,30.22,30.13,29.99,10,10,7,12,6,16,0.00,0,,251
2011-11-8,42,36,30,28,26,23,86,65,46,30.21,30.16,30.13,10,10,10,10,3,,0.00,0,,23
2011-11-9,46,40,35,25,24,21,60,54,37,30.11,30.02,29.95,10,10,10,23,9,33,0.00,1,,323
2011-11-10,37,32,26,30,25,21,93,71,56,30.04,30.01,29.96,10,10,3,20,14,29,0.00,7,Snow,294
2011-11-11,48,36,24,27,23,18,86,61,40,29.95,29.71,29.60,10,9,3,16,4,21,0.00,1,,189
2011-11-12,60,43,26,37,28,21,80,55,27,29.59,29.47,29.29,10,10,7,21,5,26,0.00,0,,178
2011-11-13,46,42,39,36,32,30,75,62,53,29.42,29.26,29.18,10,10,10,16,6,20,0.00,4,,259
2011-11-14,51,42,32,30,27,21,81,58,37,29.60,29.48,29.43,10,10,10,20,6,29,0.00,0,,239
2011-11-15,48,38,28,30,23,18,80,55,37,29.86,29.64,29.51,10,10,7,25,7,36,0.00,0,,259
2011-11-16,35,27,19,16,14,10,86,62,38,30.13,30.05,29.92,10,10,10,23,12,33,0.00,1,,272
2011-11-17,30,20,10,12,9,7,92,65,37,30.18,30.13,30.03,10,10,4,15,8,20,0.00,0,,262
2011-11-18,46,38,30,28,24,16,65,55,46,29.80,29.67,29.60,10,9,2,16,10,22,0.00,0,,189
2011-11-19,32,28,24,28,26,23,100,89,80,29.89,29.76,29.71,10,7,0,16,9,24,0.05,5,Snow,358
2011-11-20,24,17,10,19,15,9,100,85,74,30.36,30.29,30.13,10,10,4,12,5,,0.00,5,,339
2011-11-21,35,26,17,30,25,18,100,91,75,30.31,30.27,30.19,10,8,1,8,3,,0.00,8,,165
2011-11-22,35,32,28,34,30,28,100,92,81,30.20,30.12,30.02,10,6,3,8,4,,0.00,5,,96
2011-11-23,50,42,35,37,36,34,93,82,62,30.12,30.08,30.03,10,6,4,13,4,16,0.00,4,,198
2011-11-24,57,46,35,43,39,34,100,78,58,30.01,29.84,29.70,10,8,4,20,11,24,0.00,0,,185
2011-11-25,51,46,42,45,43,39,93,85,67,29.69,29.67,29.63,10,9,7,13,6,18,0.00,3,,183
2011-11-26,46,40,35,46,39,28,100,94,75,30.02,29.78,29.65,10,5,0,28,8,34,0.17,8,Fog-Rain,293
2011-11-27,35,32,28,32,25,23,100,79,69,30.20,30.14,30.04,10,10,10,21,14,30,0.00,8,,326
2011-11-28,35,27,19,27,24,19,100,88,70,30.16,30.10,30.04,10,10,10,13,3,16,0.00,2,,190
2011-11-29,37,27,17,27,17,10,86,65,33,30.34,30.25,30.15,10,10,10,13,8,18,0.00,0,,348
2011-11-30,39,28,17,23,16,10,86,54,42,30.08,29.95,29.88,10,10,10,10,2,,0.00,0,,207